This is the latest recevied weather packets stored in our database for station/object NN5DX-13. If no packets are shown the sender has not sent any weather packets the latest 10 day(s).
| Time | Temp. | Humidity | Pressure | Rain* | Wind** | Luminosity | Snow |
|---|---|---|---|---|---|---|---|
| 1777504817 | 30° C | 29% | 1010.9 hPa | 0 mm | - | - | - |
| 1777504516 | 30° C | 29% | 1011.2 hPa | 0 mm | - | - | - |
| 1777504217 | 30.56° C | 25% | 1011.4 hPa | 0 mm | - | - | - |
| 1777503916 | 30.56° C | 25% | 1011 hPa | 0 mm | - | - | - |
| 1777503616 | 30.56° C | 24% | 1010.8 hPa | 0 mm | - | - | - |
| 1777503317 | 30.56° C | 24% | 1010.8 hPa | 0 mm | - | - | - |
| 1777503017 | 30.56° C | 23% | 1010.9 hPa | 0 mm | - | - | - |
| 1777502716 | 30.56° C | 24% | 1010.9 hPa | 0 mm | - | - | - |
| 1777502416 | 30.56° C | 25% | 1010.6 hPa | 0 mm | - | - | - |
| 1777502116 | 30.56° C | 26% | 1010.8 hPa | 0 mm | - | - | - |
| 1777501817 | 31.11° C | 25% | 1011 hPa | 0 mm | - | - | - |
| 1777501516 | 31.11° C | 26% | 1011.1 hPa | 0 mm | - | - | - |
| 1777501216 | 31.11° C | 24% | 1011 hPa | 0 mm | - | - | - |
| 1777500916 | 31.11° C | 24% | 1011 hPa | 0 mm | - | - | - |
| 1777500616 | 31.11° C | 23% | 1010.9 hPa | 0 mm | - | - | - |
| 1777500317 | 31.11° C | 24% | 1010.9 hPa | 0 mm | - | - | - |
| 1777500016 | 31.67° C | 24% | 1011.1 hPa | 0 mm | - | - | - |
| 1777499716 | 31.11° C | 23% | 1011.1 hPa | 0 mm | - | - | - |
| 1777499416 | 31.67° C | 21% | 1011.5 hPa | 0 mm | - | - | - |
| 1777499116 | 31.67° C | 21% | 1011.6 hPa | 0 mm | - | - | - |
| 1777498816 | 32.22° C | 19% | 1011.8 hPa | 0 mm | - | - | - |
| 1777498516 | 31.67° C | 21% | 1011.7 hPa | 0 mm | - | - | - |
| 1777498216 | 31.67° C | 19% | 1011.7 hPa | 0 mm | - | - | - |
| 1777497916 | 31.67° C | 19% | 1011.7 hPa | 0 mm | - | - | - |
| 1777497616 | 31.11° C | 19% | 1011.7 hPa | 0 mm | - | - | - |
* Rain latest hour (hover to see other rain measurements)
** Current wind speed in m/s (hover to see current wind gust speed)